Time;durP1;ratioP1;P1;durP2;ratioP2;P2;SDS_P1;SDS_P2;PMS_P1;PMS_P2;Temp;Humidity;BMP_temperature;BMP_pressure;BME280_temperature;BME280_humidity;BME280_pressure;Samples;Min_cycle;Max_cycle;Signal;HPM_P1;HPM_P2
2022/05/29 00:01:57;;;;;;;4.72;1.88;;;20.60;52.80;;;;;;4895630;29;20538;-72
2022/05/29 00:04:24;;;;;;;3.55;1.85;;;20.60;52.80;;;;;;4895646;29;20127;-72
2022/05/29 00:06:52;;;;;;;4.47;2.20;;;20.60;52.70;;;;;;4880215;29;20128;-72
2022/05/29 00:09:31;;;;;;;4.00;2.15;;;20.50;52.70;;;;;;4895468;29;20135;-72
2022/05/29 00:11:58;;;;;;;3.53;1.63;;;20.50;52.80;;;;;;4895092;29;20064;-72
2022/05/29 00:14:23;;;;;;;3.67;2.15;;;20.60;52.90;;;;;;4895392;29;20032;-72
2022/05/29 00:16:49;;;;;;;3.58;1.92;;;20.50;52.70;;;;;;4895417;29;20025;-72
2022/05/29 00:19:15;;;;;;;3.53;2.20;;;20.50;52.80;;;;;;4879784;29;20036;-72
2022/05/29 00:21:41;;;;;;;3.75;2.08;;;20.50;52.80;;;;;;4896589;29;20036;-72
2022/05/29 00:24:08;;;;;;;3.15;2.00;;;20.50;52.80;;;;;;4896732;29;20029;-73
2022/05/29 00:26:33;;;;;;;4.25;2.08;;;20.50;52.70;;;;;;4895297;29;20040;-72
2022/05/29 00:28:59;;;;;;;4.75;2.03;;;20.50;52.80;;;;;;4894856;29;20037;-72
2022/05/29 00:31:25;;;;;;;3.08;1.80;;;20.50;52.90;;;;;;4896506;29;20028;-72
2022/05/29 00:33:51;;;;;;;4.72;2.03;;;20.50;52.80;;;;;;4879856;29;20039;-72
2022/05/29 00:36:18;;;;;;;4.18;1.75;;;20.50;52.90;;;;;;4879848;29;20556;-73
2022/05/29 00:38:46;;;;;;;3.65;2.08;;;20.50;52.70;;;;;;4879521;29;20064;-72
2022/05/29 00:41:18;;;;;;;3.70;1.95;;;20.50;52.80;;;;;;4894726;29;20112;-72
2022/05/29 00:44:12;;;;;;;4.97;2.10;;;20.50;52.90;;;;;;4896437;29;20036;-72
2022/05/29 00:46:42;;;;;;;2.72;1.88;;;20.50;52.90;;;;;;4896220;29;20032;-72
2022/05/29 00:49:08;;;;;;;4.68;2.08;;;20.50;52.90;;;;;;4896079;29;20036;-73
2022/05/29 00:51:43;;;;;;;3.42;1.98;;;20.50;52.90;;;;;;4895875;29;20375;-72
2022/05/29 00:54:09;;;;;;;3.17;1.73;;;20.60;53.10;;;;;;4896258;29;20088;-72
2022/05/29 00:56:37;;;;;;;4.68;2.25;;;20.50;52.80;;;;;;4896222;29;20029;-72
2022/05/29 00:59:05;;;;;;;4.97;2.00;;;20.50;52.80;;;;;;4895970;29;20486;-72
2022/05/29 01:01:31;;;;;;;3.63;1.90;;;20.50;52.80;;;;;;4896077;29;20122;-72
2022/05/29 01:03:57;;;;;;;3.63;2.13;;;20.50;53.50;;;;;;4894912;29;20060;-72
2022/05/29 01:06:23;;;;;;;4.13;2.10;;;20.50;52.80;;;;;;4895918;29;20033;-72
2022/05/29 01:08:48;;;;;;;4.72;2.20;;;20.50;52.70;;;;;;4896010;29;20020;-72
2022/05/29 01:11:23;;;;;;;3.38;2.05;;;20.50;52.90;;;;;;4896141;29;20450;-72
2022/05/29 01:14:00;;;;;;;6.43;2.10;;;20.50;52.80;;;;;;4896492;29;20025;-72
2022/05/29 01:16:38;;;;;;;3.70;1.90;;;20.50;52.90;;;;;;4896040;29;20036;-72
2022/05/29 01:19:22;;;;;;;3.47;1.85;;;20.50;52.80;;;;;;4895777;29;20033;-72
2022/05/29 01:22:07;;;;;;;3.08;1.85;;;20.50;52.90;;;;;;4895840;29;20067;-72
2022/05/29 01:25:16;;;;;;;3.08;2.00;;;20.50;52.80;;;;;;4896200;29;20028;-72
2022/05/29 01:28:04;;;;;;;4.53;1.92;;;20.50;52.70;;;;;;4894174;29;20493;-72
2022/05/29 01:30:45;;;;;;;3.40;2.10;;;20.50;52.80;;;;;;4894641;29;20092;-72
2022/05/29 01:33:34;;;;;;;3.03;1.88;;;20.50;52.70;;;;;;4895866;29;20048;-72
2022/05/29 01:36:17;;;;;;;4.15;1.70;;;20.50;52.70;;;;;;4896045;29;20478;-72
2022/05/29 01:38:59;;;;;;;5.88;2.25;;;20.50;52.70;;;;;;4895632;29;20063;-72
2022/05/29 01:41:35;;;;;;;5.00;1.92;;;20.50;52.80;;;;;;4894669;29;20039;-72
2022/05/29 01:44:22;;;;;;;3.70;1.98;;;20.40;52.70;;;;;;4894313;29;20045;-71
2022/05/29 01:46:53;;;;;;;3.95;1.70;;;20.40;52.90;;;;;;4895750;29;20457;-71
2022/05/29 01:49:18;;;;;;;3.67;2.08;;;20.50;52.80;;;;;;4895389;29;20040;-72
2022/05/29 01:51:54;;;;;;;2.55;1.55;;;20.50;52.80;;;;;;4895583;29;20064;-71
2022/05/29 01:54:26;;;;;;;3.25;1.77;;;20.50;53.00;;;;;;4882613;29;20088;-72
2022/05/29 01:56:57;;;;;;;3.97;1.77;;;20.50;52.70;;;;;;4899157;29;20039;-71
2022/05/29 01:59:35;;;;;;;3.13;1.90;;;20.50;52.90;;;;;;4897758;29;20393;-72
2022/05/29 02:02:09;;;;;;;2.55;1.65;;;20.50;52.90;;;;;;4898967;29;20024;-72
2022/05/29 02:04:39;;;;;;;2.20;1.60;;;20.50;52.80;;;;;;4899085;29;20470;-72
2022/05/29 02:10:14;;;;;;;2.80;1.67;;;20.50;52.80;;;;;;4898007;29;20089;-72
2022/05/29 02:12:49;;;;;;;2.70;1.80;;;20.40;52.70;;;;;;4897231;29;20108;-71
2022/05/29 02:15:19;;;;;;;4.20;2.00;;;20.40;52.80;;;;;;4897848;29;20092;-71
2022/05/29 02:17:49;;;;;;;6.50;1.88;;;20.40;52.90;;;;;;4897489;29;20028;-72
2022/05/29 02:20:23;;;;;;;4.68;2.00;;;20.50;52.90;;;;;;4897954;29;20037;-72
2022/05/29 02:22:56;;;;;;;2.95;1.77;;;20.50;52.70;;;;;;4898758;29;20052;-72
2022/05/29 02:25:25;;;;;;;4.47;2.17;;;20.50;52.70;;;;;;4898557;29;20036;-72
2022/05/29 02:28:08;;;;;;;3.50;1.90;;;20.40;52.80;;;;;;4898108;29;20039;-71
2022/05/29 02:30:56;;;;;;;4.32;2.28;;;20.40;52.70;;;;;;4898648;29;20044;-72
2022/05/29 02:33:34;;;;;;;3.63;1.65;;;20.40;52.70;;;;;;4898437;29;20029;-71
2022/05/29 02:36:23;;;;;;;3.20;1.70;;;20.40;52.70;;;;;;4898489;29;20035;-72
2022/05/29 02:39:30;;;;;;;2.92;1.80;;;20.40;52.60;;;;;;4863691;29;20107;-72
2022/05/29 02:42:19;;;;;;;4.53;1.55;;;20.40;52.90;;;;;;4898330;29;20084;-72
2022/05/29 02:45:12;;;;;;;3.17;1.67;;;20.40;52.90;;;;;;4898303;29;20112;-72
2022/05/29 02:48:01;;;;;;;4.03;1.90;;;20.40;52.90;;;;;;4896156;29;20048;-72
2022/05/29 02:50:32;;;;;;;3.80;1.80;;;20.40;52.80;;;;;;4898332;29;20028;-72
2022/05/29 02:53:05;;;;;;;3.70;1.80;;;20.40;52.70;;;;;;4881366;29;20037;-71
2022/05/29 02:55:31;;;;;;;4.22;1.75;;;20.40;52.80;;;;;;4898332;29;20028;-72
2022/05/29 02:58:01;;;;;;;3.05;1.60;;;20.40;52.90;;;;;;4897548;29;20051;-72
2022/05/29 03:00:32;;;;;;;3.85;1.60;;;20.40;52.90;;;;;;4898282;29;20036;-71
2022/05/29 03:03:09;;;;;;;3.45;2.00;;;20.50;52.90;;;;;;4896490;29;20501;-72
2022/05/29 03:06:04;;;;;;;2.67;1.52;;;20.40;52.80;;;;;;4897129;29;20039;-71
2022/05/29 03:08:58;;;;;;;3.45;1.85;;;20.40;52.70;;;;;;4896420;29;20401;-72
2022/05/29 03:11:41;;;;;;;4.45;2.00;;;20.40;52.80;;;;;;4897551;29;20433;-72
2022/05/29 03:14:32;;;;;;;4.47;1.90;;;20.40;52.70;;;;;;4897795;29;20056;-72
2022/05/29 03:17:25;;;;;;;4.03;1.63;;;20.40;52.90;;;;;;4896835;29;20042;-72
2022/05/29 03:20:09;;;;;;;2.90;1.75;;;20.40;52.80;;;;;;4897998;29;20044;-72
2022/05/29 03:22:53;;;;;;;2.63;1.45;;;20.40;52.90;;;;;;4897710;29;20025;-72
2022/05/29 03:25:28;;;;;;;3.92;1.98;;;20.40;52.90;;;;;;4897689;29;20037;-72
2022/05/29 03:27:57;;;;;;;2.88;1.90;;;20.40;53.00;;;;;;4896001;29;20124;-71
2022/05/29 03:30:40;;;;;;;2.90;1.77;;;20.40;52.90;;;;;;4897404;29;20044;-72
2022/05/29 03:33:09;;;;;;;3.85;1.90;;;20.40;52.80;;;;;;4897321;29;20112;-72
2022/05/29 03:35:45;;;;;;;3.45;1.67;;;20.40;53.00;;;;;;4897618;29;20080;-72
2022/05/29 03:38:11;;;;;;;2.85;1.75;;;20.40;52.90;;;;;;4895628;29;20059;-72
2022/05/29 03:40:38;;;;;;;2.00;1.27;;;20.40;52.80;;;;;;4897363;29;20064;-72
2022/05/29 03:43:04;;;;;;;3.67;1.75;;;20.40;52.70;;;;;;4897234;29;20036;-72
2022/05/29 03:45:29;;;;;;;2.72;1.77;;;20.40;53.00;;;;;;4897261;29;20036;-71
2022/05/29 03:47:55;;;;;;;2.10;1.52;;;20.40;52.90;;;;;;4895576;29;20075;-72
2022/05/29 03:50:23;;;;;;;3.90;1.80;;;20.40;52.90;;;;;;4897008;29;20520;-71
2022/05/29 03:52:49;;;;;;;3.42;1.88;;;20.40;52.90;;;;;;4897179;29;20052;-72
2022/05/29 03:55:20;;;;;;;3.33;1.88;;;20.40;52.90;;;;;;4896590;29;20029;-71
2022/05/29 03:57:47;;;;;;;4.28;2.08;;;20.40;52.80;;;;;;4895330;29;20033;-72
2022/05/29 04:00:13;;;;;;;2.83;1.70;;;20.40;52.70;;;;;;4897298;29;20111;-72
2022/05/29 04:02:40;;;;;;;2.83;1.60;;;20.40;52.80;;;;;;4897071;29;20036;-72
2022/05/29 04:05:08;;;;;;;2.25;1.63;;;20.40;52.80;;;;;;4896906;29;20417;-72
2022/05/29 04:13:03;;;;;;;2.40;1.70;;;20.40;52.80;;;;;;4896732;29;20027;-72
2022/05/29 04:15:29;;;;;;;4.57;1.77;;;20.40;52.70;;;;;;4864023;29;20462;-71
2022/05/29 04:17:55;;;;;;;3.20;1.63;;;20.40;52.90;;;;;;4896160;29;20033;-71
2022/05/29 04:20:21;;;;;;;3.00;1.73;;;20.40;52.90;;;;;;4896702;29;20036;-71
2022/05/29 04:22:46;;;;;;;3.63;1.80;;;20.40;52.90;;;;;;4896650;29;20028;-71
2022/05/29 04:25:12;;;;;;;2.72;1.70;;;20.40;52.70;;;;;;4896591;29;20123;-71
2022/05/29 04:27:38;;;;;;;3.22;1.90;;;20.40;52.90;;;;;;4896430;29;20119;-72
2022/05/29 04:30:05;;;;;;;3.50;1.98;;;20.30;52.80;;;;;;4895236;29;20036;-71
2022/05/29 04:35:16;;;;;;;2.80;1.90;;;20.40;52.90;;;;;;4896362;29;20044;-72
2022/05/29 04:37:42;;;;;;;2.95;1.85;;;20.40;52.90;;;;;;4896129;29;20063;-71
2022/05/29 04:40:09;;;;;;;4.35;1.95;;;20.40;52.90;;;;;;4896178;29;20036;-72
2022/05/29 04:42:35;;;;;;;3.78;1.90;;;20.40;53.00;;;;;;4895252;29;20036;-72
2022/05/29 04:45:01;;;;;;;3.95;2.03;;;20.40;52.90;;;;;;4894804;29;20047;-72
2022/05/29 04:47:27;;;;;;;2.58;1.70;;;20.40;52.80;;;;;;4895082;29;20047;-72
2022/05/29 04:49:53;;;;;;;5.20;2.10;;;20.30;52.90;;;;;;4895079;29;20037;-71
2022/05/29 04:52:19;;;;;;;4.00;2.17;;;20.40;53.00;;;;;;4896344;29;20028;-72
2022/05/29 04:54:45;;;;;;;3.15;1.80;;;20.30;52.80;;;;;;4896154;29;20032;-72
2022/05/29 04:57:11;;;;;;;5.38;2.00;;;20.40;52.90;;;;;;4896165;29;20036;-72
2022/05/29 04:59:38;;;;;;;4.80;1.90;;;20.40;52.90;;;;;;4894730;29;20398;-72
2022/05/29 05:02:04;;;;;;;4.55;1.90;;;20.40;52.90;;;;;;4894900;29;20036;-72
2022/05/29 05:04:30;;;;;;;3.60;2.00;;;20.30;52.80;;;;;;4895629;29;20366;-71
2022/05/29 05:07:01;;;;;;;3.90;2.00;;;20.30;52.70;;;;;;4896252;29;20036;-72
2022/05/29 05:09:28;;;;;;;4.65;2.08;;;20.30;52.70;;;;;;4895684;29;20043;-72
2022/05/29 05:11:55;;;;;;;3.85;1.90;;;20.30;52.80;;;;;;4896107;29;20043;-72
2022/05/29 05:14:22;;;;;;;5.80;2.40;;;20.30;52.80;;;;;;4895757;29;20032;-72
2022/05/29 05:16:48;;;;;;;3.92;2.13;;;20.40;52.80;;;;;;4896106;29;20065;-72
2022/05/29 05:19:15;;;;;;;3.55;1.88;;;20.30;52.80;;;;;;4895574;29;20426;-72
2022/05/29 05:21:42;;;;;;;3.47;1.92;;;20.40;52.90;;;;;;4894938;29;20111;-72
2022/05/29 05:24:08;;;;;;;3.55;1.98;;;20.30;52.70;;;;;;4895718;29;20037;-72
2022/05/29 05:26:34;;;;;;;4.10;1.90;;;20.30;52.70;;;;;;4895592;29;20031;-72
2022/05/29 05:28:59;;;;;;;2.63;1.80;;;20.40;52.90;;;;;;4899569;29;20489;-72
2022/05/29 05:31:25;;;;;;;3.92;1.95;;;20.40;52.80;;;;;;4900113;29;20036;-72
2022/05/29 05:33:52;;;;;;;3.88;2.00;;;20.30;52.80;;;;;;4899543;29;20024;-71
2022/05/29 05:36:18;;;;;;;5.05;2.20;;;20.30;52.70;;;;;;4899600;29;20100;-72
2022/05/29 05:38:44;;;;;;;5.28;2.30;;;20.40;52.90;;;;;;4898166;29;20107;-72
2022/05/29 05:41:12;;;;;;;3.70;1.92;;;20.40;52.80;;;;;;4898044;29;20469;-72
2022/05/29 05:43:37;;;;;;;4.70;2.15;;;20.40;52.80;;;;;;4898150;29;20561;-72
2022/05/29 05:46:11;;;;;;;3.30;2.00;;;20.40;52.70;;;;;;4899290;29;20041;-72
2022/05/29 05:48:38;;;;;;;3.75;2.22;;;20.40;53.50;;;;;;4899259;29;20408;-71
2022/05/29 05:51:04;;;;;;;2.55;1.85;;;20.30;52.90;;;;;;4899205;29;20028;-72
2022/05/29 05:53:30;;;;;;;5.00;2.30;;;20.30;52.80;;;;;;4899255;29;20029;-72
2022/05/29 05:55:56;;;;;;;5.15;2.38;;;20.30;52.90;;;;;;4899121;29;20085;-72
2022/05/29 05:58:22;;;;;;;3.28;2.20;;;20.30;53.30;;;;;;4898888;29;20081;-72
2022/05/29 06:00:49;;;;;;;5.20;2.63;;;20.30;52.90;;;;;;4897963;29;20033;-72
2022/05/29 06:03:15;;;;;;;4.75;2.45;;;20.30;53.00;;;;;;4899156;29;20474;-72
2022/05/29 06:05:41;;;;;;;3.05;2.10;;;20.30;52.70;;;;;;4866837;29;20520;-72
2022/05/29 06:08:08;;;;;;;4.10;2.58;;;20.30;52.80;;;;;;4898818;29;20032;-72
2022/05/29 06:10:34;;;;;;;3.75;2.25;;;20.30;52.80;;;;;;4897620;29;20040;-72
2022/05/29 06:13:05;;;;;;;5.45;2.33;;;20.30;52.80;;;;;;4898977;29;20032;-71
2022/05/29 06:15:32;;;;;;;5.03;2.60;;;20.30;52.80;;;;;;4898817;29;20029;-72
2022/05/29 06:17:57;;;;;;;3.92;2.53;;;20.30;52.80;;;;;;4897557;29;20394;-72
2022/05/29 06:20:24;;;;;;;5.38;2.80;;;20.40;52.80;;;;;;4898664;29;20029;-73
2022/05/29 06:22:50;;;;;;;4.57;2.15;;;20.40;52.70;;;;;;4866681;29;20465;-72
2022/05/29 06:25:16;;;;;;;4.88;2.40;;;20.40;52.80;;;;;;4898290;29;20036;-73
2022/05/29 06:27:43;;;;;;;4.88;2.50;;;20.30;52.80;;;;;;4898453;29;20047;-72
2022/05/29 06:30:12;;;;;;;3.83;2.20;;;20.30;52.70;;;;;;4898383;29;20029;-73
2022/05/29 06:32:39;;;;;;;4.00;2.20;;;20.40;52.80;;;;;;4897556;29;20040;-73
2022/05/29 06:35:07;;;;;;;4.65;2.25;;;20.40;52.90;;;;;;4898366;29;20033;-73
2022/05/29 06:37:32;;;;;;;3.65;2.33;;;20.40;52.90;;;;;;4897668;29;20028;-73
2022/05/29 06:39:58;;;;;;;3.38;2.17;;;20.30;52.80;;;;;;4898391;29;20033;-73
2022/05/29 06:42:25;;;;;;;3.90;2.35;;;20.30;52.80;;;;;;4897565;29;20428;-73
2022/05/29 06:44:50;;;;;;;3.75;2.40;;;20.30;52.90;;;;;;4897134;29;20033;-73
2022/05/29 06:47:17;;;;;;;4.80;2.47;;;20.30;52.80;;;;;;4897054;29;20407;-73
2022/05/29 06:49:48;;;;;;;4.78;2.38;;;20.30;52.90;;;;;;4897103;29;20035;-73
2022/05/29 06:52:14;;;;;;;4.05;2.42;;;20.30;52.70;;;;;;4897139;29;20044;-72
2022/05/29 06:54:40;;;;;;;4.93;2.67;;;20.30;52.80;;;;;;4898245;29;20092;-72
2022/05/29 06:57:06;;;;;;;4.18;2.50;;;20.30;52.90;;;;;;4897988;29;20052;-73
2022/05/29 07:08:01;;;;;;;5.93;2.92;;;20.30;52.90;;;;;;4897874;29;20028;-73
2022/05/29 07:10:32;;;;;;;5.43;2.88;;;20.30;52.80;;;;;;4896419;29;20049;-73
2022/05/29 07:13:00;;;;;;;4.88;2.70;;;20.30;52.80;;;;;;4897873;29;20111;-73
2022/05/29 07:15:26;;;;;;;4.93;2.95;;;20.40;52.70;;;;;;4880926;29;20636;-73
2022/05/29 07:17:52;;;;;;;4.82;2.88;;;20.30;52.60;;;;;;4897813;29;20024;-73
2022/05/29 07:20:18;;;;;;;5.18;2.80;;;20.30;52.70;;;;;;4896525;29;20458;-73
2022/05/29 07:22:44;;;;;;;6.70;3.45;;;20.40;52.70;;;;;;4897626;29;20029;-74
2022/05/29 07:25:11;;;;;;;5.10;2.92;;;20.30;52.60;;;;;;4897493;29;20569;-73
2022/05/29 07:27:38;;;;;;;5.25;2.97;;;20.40;52.70;;;;;;4897292;29;20028;-73
2022/05/29 07:30:05;;;;;;;4.63;2.70;;;20.40;52.70;;;;;;4897602;29;20628;-72
2022/05/29 07:32:31;;;;;;;5.03;2.97;;;20.30;52.70;;;;;;4880887;29;20028;-73
2022/05/29 07:35:00;;;;;;;3.90;2.60;;;20.40;52.70;;;;;;4881349;29;20438;-74
2022/05/29 07:37:26;;;;;;;5.90;2.83;;;20.40;52.80;;;;;;4897141;29;20116;-73
2022/05/29 07:39:54;;;;;;;4.05;2.78;;;20.40;52.80;;;;;;4896175;29;20061;-72
2022/05/29 07:45:06;;;;;;;5.32;3.20;;;20.30;52.80;;;;;;4896046;29;20035;-73
2022/05/29 07:47:41;;;;;;;5.07;3.10;;;20.30;52.80;;;;;;4895850;29;20124;-73
2022/05/29 07:50:09;;;;;;;5.10;3.03;;;20.30;52.90;;;;;;4880031;29;20084;-73
2022/05/29 07:52:35;;;;;;;7.15;3.70;;;20.30;52.80;;;;;;4896889;29;20028;-73
2022/05/29 07:55:01;;;;;;;3.78;2.70;;;20.30;53.40;;;;;;4897124;29;20027;-72
2022/05/29 07:57:26;;;;;;;4.95;2.88;;;20.30;52.90;;;;;;4896681;29;20024;-73
2022/05/29 07:59:52;;;;;;;5.65;3.17;;;20.30;53.00;;;;;;4896247;29;20060;-72
2022/05/29 08:02:18;;;;;;;4.82;2.90;;;20.30;52.90;;;;;;4880031;29;20088;-72
2022/05/29 08:04:45;;;;;;;5.07;2.95;;;20.30;53.00;;;;;;4896937;29;20114;-72
2022/05/29 08:07:15;;;;;;;5.03;3.05;;;20.30;53.00;;;;;;4896229;29;20039;-73
2022/05/29 08:09:41;;;;;;;3.83;2.53;;;20.30;52.90;;;;;;4895441;29;20545;-72
2022/05/29 08:12:07;;;;;;;6.55;3.00;;;20.30;53.40;;;;;;4896718;29;20470;-72
2022/05/29 08:14:33;;;;;;;5.30;2.90;;;20.30;52.90;;;;;;4896723;29;20033;-72
2022/05/29 08:16:59;;;;;;;5.05;3.10;;;20.30;52.90;;;;;;4896639;29;20454;-72
2022/05/29 08:19:24;;;;;;;5.80;3.30;;;20.30;52.90;;;;;;4895278;29;20037;-73
2022/05/29 08:21:50;;;;;;;5.88;2.97;;;20.30;52.90;;;;;;4880009;29;20391;-72
2022/05/29 08:32:29;;;;;;;5.43;3.13;;;20.30;53.00;;;;;;4896458;29;20032;-72
2022/05/29 08:34:54;;;;;;;5.03;3.10;;;20.30;52.90;;;;;;4864439;29;20025;-73
2022/05/29 08:37:20;;;;;;;5.45;3.28;;;20.30;52.90;;;;;;4896154;29;20028;-72
2022/05/29 08:39:46;;;;;;;5.00;3.05;;;20.30;53.00;;;;;;4895407;29;20063;-72
2022/05/29 08:42:15;;;;;;;5.75;3.30;;;20.30;52.80;;;;;;4896307;29;20028;-72
2022/05/29 08:44:47;;;;;;;6.72;3.53;;;20.30;52.80;;;;;;4896361;29;20111;-72
2022/05/29 08:47:15;;;;;;;7.05;3.67;;;20.30;52.80;;;;;;4896015;29;20068;-72
2022/05/29 08:49:48;;;;;;;5.80;3.47;;;20.30;52.80;;;;;;4894957;29;20057;-72
2022/05/29 08:52:47;;;;;;;6.43;3.40;;;20.30;52.80;;;;;;4896159;29;20049;-72
2022/05/29 08:55:42;;;;;;;7.20;3.35;;;20.30;52.70;;;;;;4896244;29;20064;-72
2022/05/29 08:58:55;;;;;;;6.28;3.80;;;20.30;52.70;;;;;;4894952;29;20455;-73
2022/05/29 09:01:31;;;;;;;6.82;3.53;;;20.30;52.70;;;;;;4874856;29;20128;-73
2022/05/29 09:04:04;;;;;;;7.03;3.53;;;20.40;52.70;;;;;;4875213;29;20064;-73
2022/05/29 09:06:43;;;;;;;7.05;3.63;;;20.30;52.70;;;;;;4879123;29;20048;-72
2022/05/29 09:09:09;;;;;;;;;;;20.40;52.70;;;;;;4895067;29;20032;-72
2022/05/29 09:11:47;;;;;;;6.80;3.72;;;20.40;52.80;;;;;;4896022;29;20343;-73
2022/05/29 09:14:30;;;;;;;6.15;3.40;;;20.30;52.80;;;;;;4896156;29;20083;-73
2022/05/29 09:17:06;;;;;;;6.55;3.58;;;20.30;52.80;;;;;;4896430;29;20032;-72
2022/05/29 09:19:56;;;;;;;5.75;3.63;;;20.30;52.80;;;;;;4894926;29;20033;-73
2022/05/29 09:22:30;;;;;;;4.95;3.15;;;20.30;52.80;;;;;;4894705;29;20037;-72
2022/05/29 09:25:00;;;;;;;6.43;3.38;;;20.30;52.90;;;;;;4879299;29;20060;-73
2022/05/29 09:27:26;;;;;;;6.72;4.00;;;20.30;52.90;;;;;;4895876;29;20558;-73
2022/05/29 09:29:53;;;;;;;6.95;3.92;;;20.30;52.90;;;;;;4896086;29;20112;-73
2022/05/29 09:32:26;;;;;;;6.93;3.90;;;20.30;52.80;;;;;;4895660;29;20534;-72
2022/05/29 09:35:16;;;;;;;8.40;3.97;;;20.30;53.50;;;;;;4894679;29;20036;-73
2022/05/29 09:38:04;;;;;;;6.60;3.83;;;20.30;52.80;;;;;;4895476;29;20052;-72
2022/05/29 09:40:46;;;;;;;6.15;3.75;;;20.30;52.80;;;;;;4894705;29;20115;-72
2022/05/29 09:43:19;;;;;;;6.95;4.00;;;20.40;52.90;;;;;;4895701;29;20069;-73
2022/05/29 09:45:45;;;;;;;6.82;3.50;;;20.30;52.90;;;;;;4879383;29;20036;-73
2022/05/29 09:51:25;;;;;;;6.57;4.32;;;20.30;52.90;;;;;;4894459;29;20041;-73
2022/05/29 09:53:56;;;;;;;6.00;3.83;;;20.30;53.00;;;;;;4894446;29;20031;-73
2022/05/29 09:56:28;;;;;;;7.95;4.18;;;20.30;52.90;;;;;;4895781;29;20501;-73
2022/05/29 09:59:01;;;;;;;9.32;3.90;;;20.30;53.00;;;;;;4895274;29;20036;-77
2022/05/29 10:01:46;;;;;;;18.60;5.57;;;20.30;53.80;;;;;;4888353;29;20020;-74
2022/05/29 10:04:19;;;;;;;20.98;5.32;;;20.30;53.80;;;;;;4894574;29;20040;-72
2022/05/29 10:06:51;;;;;;;15.93;6.05;;;20.30;54.30;;;;;;4894667;29;20119;-72
2022/05/29 10:09:22;;;;;;;9.95;4.65;;;20.30;54.10;;;;;;4890918;29;20040;-72
2022/05/29 10:11:59;;;;;;;11.38;5.30;;;20.30;54.10;;;;;;4873906;29;20522;-72
2022/05/29 10:14:30;;;;;;;23.17;5.32;;;20.30;54.10;;;;;;4878606;29;20474;-72
2022/05/29 10:16:57;;;;;;;16.33;4.70;;;20.30;54.70;;;;;;4897030;29;20044;-72
2022/05/29 10:19:38;;;;;;;23.73;5.50;;;20.30;54.60;;;;;;4896159;29;20072;-73
2022/05/29 10:22:12;;;;;;;27.73;5.38;;;20.40;55.40;;;;;;4878757;29;20036;-74
2022/05/29 10:24:40;;;;;;;28.77;5.60;;;20.40;56.20;;;;;;4896283;29;20401;-74
2022/05/29 10:27:33;;;;;;;15.00;5.30;;;20.40;54.90;;;;;;4898719;29;20028;-74
2022/05/29 10:30:03;;;;;;;12.30;4.70;;;20.40;54.60;;;;;;4898375;29;20088;-74
2022/05/29 10:32:34;;;;;;;12.00;4.90;;;20.30;54.60;;;;;;4899007;29;20021;-74
2022/05/29 10:35:25;;;;;;;12.82;5.25;;;20.40;54.50;;;;;;4898784;29;20170;-74
2022/05/29 10:37:53;;;;;;;14.57;5.32;;;20.40;54.50;;;;;;4898343;29;20104;-74
2022/05/29 10:40:31;;;;;;;19.13;5.60;;;20.40;54.50;;;;;;4898438;29;20033;-74
2022/05/29 10:43:03;;;;;;;15.63;5.10;;;20.30;54.20;;;;;;4898642;29;20088;-74
2022/05/29 10:45:44;;;;;;;11.50;5.40;;;20.30;54.30;;;;;;4898171;29;20100;-74
2022/05/29 10:48:30;;;;;;;10.38;5.32;;;20.30;54.30;;;;;;4897887;29;20093;-74
2022/05/29 10:51:05;;;;;;;11.80;5.38;;;20.30;54.10;;;;;;4893977;29;20387;-73
2022/05/29 10:53:45;;;;;;;13.20;5.20;;;20.40;54.10;;;;;;4897266;29;20032;-73
2022/05/29 10:56:32;;;;;;;9.98;5.25;;;20.40;54.10;;;;;;4898620;29;20029;-73
2022/05/29 10:59:21;;;;;;;9.20;5.15;;;20.40;54.20;;;;;;4896485;29;20028;-73
2022/05/29 11:04:50;;;;;;;14.52;5.90;;;20.40;54.00;;;;;;4898020;29;20470;-73
2022/05/29 11:07:48;;;;;;;10.90;5.22;;;20.30;54.00;;;;;;4896957;29;20048;-73
2022/05/29 11:10:24;;;;;;;10.85;5.78;;;20.40;53.90;;;;;;4881216;29;20036;-73
2022/05/29 11:13:26;;;;;;;11.77;6.00;;;20.40;53.90;;;;;;4897338;29;20394;-73
2022/05/29 11:16:10;;;;;;;10.63;5.30;;;20.40;53.90;;;;;;4897831;29;20471;-73
2022/05/29 11:18:50;;;;;;;12.20;5.80;;;20.40;54.00;;;;;;4897766;29;20021;-73
2022/05/29 11:21:42;;;;;;;10.38;5.55;;;20.40;53.90;;;;;;4896730;29;20036;-73
2022/05/29 11:24:28;;;;;;;9.20;5.03;;;20.40;53.90;;;;;;4988041;23;20045;-79
2022/05/29 11:27:12;;;;;;;10.65;5.65;;;20.40;53.80;;;;;;4880512;29;20074;-78
2022/05/29 11:30:08;;;;;;;16.63;6.38;;;20.40;53.80;;;;;;4877250;29;20486;-77
2022/05/29 11:32:46;;;;;;;10.85;5.70;;;20.40;53.90;;;;;;4862615;29;20037;-78
2022/05/29 11:35:17;;;;;;;10.85;5.10;;;20.40;53.80;;;;;;4877488;29;20411;-78
2022/05/29 11:38:02;;;;;;;12.52;5.50;;;20.40;53.90;;;;;;4878531;29;20029;-77
2022/05/29 11:40:35;;;;;;;11.25;5.55;;;20.30;53.80;;;;;;4879075;29;20505;-78
2022/05/29 11:43:21;;;;;;;9.73;5.55;;;20.40;53.90;;;;;;4878855;29;20029;-78
2022/05/29 11:52:19;;;;;;;11.15;5.72;;;20.40;53.80;;;;;;4878780;29;20278;-78
2022/05/29 11:55:02;;;;;;;11.48;6.13;;;20.40;53.90;;;;;;4878680;29;20394;-77
2022/05/29 11:57:31;;;;;;;12.75;5.28;;;20.40;53.90;;;;;;4878420;29;20060;-77
2022/05/29 12:00:07;;;;;;;10.95;5.55;;;20.40;53.90;;;;;;4877415;29;20033;-77
2022/05/29 12:02:58;;;;;;;12.27;5.55;;;20.40;53.90;;;;;;4877666;29;20182;-77
2022/05/29 12:05:23;;;;;;;;;;;20.40;54.00;;;;;;4862060;29;20028;-78
2022/05/29 12:08:13;;;;;;;11.07;5.60;;;20.40;53.90;;;;;;4877089;29;19911;-77
2022/05/29 12:10:57;;;;;;;;;;;20.40;54.00;;;;;;4878970;29;20060;-77
2022/05/29 12:13:29;;;;;;;12.43;5.88;;;20.40;53.80;;;;;;4878494;29;20014;-77
2022/05/29 12:15:59;;;;;;;13.85;5.80;;;20.40;53.80;;;;;;4877048;29;20465;-77
2022/05/29 12:18:34;;;;;;;11.48;6.03;;;20.40;53.80;;;;;;4877859;29;20043;-77
2022/05/29 12:21:02;;;;;;;12.13;5.95;;;20.40;53.90;;;;;;4876956;29;20037;-77
2022/05/29 12:23:35;;;;;;;14.50;6.15;;;20.40;53.80;;;;;;4876813;29;20120;-77
2022/05/29 12:26:14;;;;;;;11.85;5.78;;;20.40;53.90;;;;;;4878092;29;20084;-77
2022/05/29 12:28:45;;;;;;;11.80;5.55;;;20.40;53.90;;;;;;4878052;29;20438;-77
2022/05/29 12:31:19;;;;;;;11.57;6.00;;;20.40;53.80;;;;;;4877726;29;20075;-78
2022/05/29 12:33:45;;;;;;;12.75;6.28;;;20.40;53.90;;;;;;4877873;29;20029;-77
2022/05/29 12:36:49;;;;;;;9.45;5.78;;;20.30;53.80;;;;;;4877789;29;20041;-77
2022/05/29 12:39:26;;;;;;;12.25;6.10;;;20.40;53.90;;;;;;4877841;29;20111;-77
2022/05/29 12:42:30;;;;;;;11.93;5.90;;;20.30;53.80;;;;;;4876748;29;20032;-77
2022/05/29 12:45:30;;;;;;;11.30;5.32;;;20.40;53.80;;;;;;4876350;29;20036;-77
2022/05/29 12:48:17;;;;;;;13.05;5.90;;;20.40;53.80;;;;;;4877614;29;20493;-78
2022/05/29 12:51:05;;;;;;;12.73;5.78;;;20.40;53.80;;;;;;4876437;29;20057;-77
2022/05/29 12:53:56;;;;;;;9.23;5.38;;;20.40;53.80;;;;;;4877673;29;20033;-77
2022/05/29 12:56:43;;;;;;;12.23;6.82;;;20.40;53.90;;;;;;4876410;29;20085;-77
2022/05/29 12:59:28;;;;;;;12.05;6.35;;;20.40;53.90;;;;;;4877370;29;20025;-77
2022/05/29 13:01:53;;;;;;;11.25;6.30;;;20.30;53.80;;;;;;4877706;29;20036;-77
2022/05/29 13:04:51;;;;;;;10.90;5.57;;;20.40;53.90;;;;;;4877588;29;20394;-77
2022/05/29 13:07:25;;;;;;;11.45;6.70;;;20.40;53.90;;;;;;4876217;29;20060;-77
2022/05/29 13:09:59;;;;;;;11.93;6.85;;;20.30;53.90;;;;;;4877194;29;20097;-78
2022/05/29 13:12:49;;;;;;;12.52;6.60;;;20.30;53.80;;;;;;4877676;29;20037;-78
2022/05/29 13:15:29;;;;;;;11.02;6.32;;;20.40;53.90;;;;;;4877393;29;20074;-77
2022/05/29 13:18:09;;;;;;;11.73;6.47;;;20.40;53.80;;;;;;4877313;29;20100;-78
2022/05/29 13:21:13;;;;;;;11.15;5.85;;;20.30;53.90;;;;;;4878025;29;20039;-78
2022/05/29 13:23:48;;;;;;;11.13;5.65;;;20.40;53.90;;;;;;4876433;29;20056;-77
2022/05/29 13:26:20;;;;;;;11.13;6.28;;;20.30;53.90;;;;;;4877399;29;20435;-78
2022/05/29 13:28:54;;;;;;;11.52;6.15;;;20.30;54.00;;;;;;4876884;29;20064;-78
2022/05/29 13:31:20;;;;;;;13.18;6.65;;;20.40;54.00;;;;;;4877392;29;20390;-78
2022/05/29 13:33:50;;;;;;;11.82;6.25;;;20.30;53.90;;;;;;4876268;29;20064;-78
2022/05/29 13:36:39;;;;;;;13.68;6.47;;;20.40;54.00;;;;;;4876224;29;20036;-78
2022/05/29 13:39:23;;;;;;;12.23;6.88;;;20.40;54.00;;;;;;4876774;29;20033;-78
2022/05/29 13:41:59;;;;;;;11.05;6.35;;;20.30;53.90;;;;;;4877198;29;20096;-78
2022/05/29 13:44:30;;;;;;;14.48;6.65;;;20.30;53.90;;;;;;4877160;29;20061;-78
2022/05/29 13:47:18;;;;;;;12.10;6.55;;;20.30;53.80;;;;;;4877530;29;20648;-78
2022/05/29 13:50:05;;;;;;;11.65;6.05;;;20.30;53.90;;;;;;4880703;29;20041;-78
2022/05/29 13:52:52;;;;;;;13.48;6.60;;;20.30;53.80;;;;;;4880973;29;20040;-78
2022/05/29 13:55:43;;;;;;;10.93;6.30;;;20.40;53.80;;;;;;4880632;29;20117;-78
2022/05/29 14:03:58;;;;;;;11.20;6.20;;;20.30;53.80;;;;;;4880412;29;20029;-78
2022/05/29 14:06:40;;;;;;;10.65;6.03;;;20.40;53.90;;;;;;4879506;29;20450;-77
2022/05/29 14:09:12;;;;;;;9.82;5.68;;;20.30;53.80;;;;;;4880267;29;20061;-77